sensor_id;sensor_type;location;lat;lon;timestamp;pressure;altitude;pressure_sealevel;temperature;humidity
59825;BME280;45703;50.898;6.054;2022-11-03T00:01:55;100200.22;;;12.00;73.51
59825;BME280;45703;50.898;6.054;2022-11-03T00:04:21;100195.91;;;11.99;73.33
59825;BME280;45703;50.898;6.054;2022-11-03T00:06:52;100189.53;;;12.00;73.63
59825;BME280;45703;50.898;6.054;2022-11-03T00:09:18;100189.97;;;11.97;73.27
59825;BME280;45703;50.898;6.054;2022-11-03T00:11:46;100184.53;;;12.03;73.34
59825;BME280;45703;50.898;6.054;2022-11-03T00:14:12;100184.63;;;11.97;73.39
59825;BME280;45703;50.898;6.054;2022-11-03T00:16:39;100176.38;;;11.98;73.45
59825;BME280;45703;50.898;6.054;2022-11-03T00:19:06;100167.75;;;11.96;73.54
59825;BME280;45703;50.898;6.054;2022-11-03T00:21:32;100166.59;;;11.92;73.66
59825;BME280;45703;50.898;6.054;2022-11-03T00:23:58;100165.06;;;11.96;73.43
59825;BME280;45703;50.898;6.054;2022-11-03T00:26:25;100161.81;;;11.94;73.61
59825;BME280;45703;50.898;6.054;2022-11-03T00:28:53;100164.97;;;11.91;73.67
59825;BME280;45703;50.898;6.054;2022-11-03T00:31:30;100165.78;;;11.92;73.41
59825;BME280;45703;50.898;6.054;2022-11-03T00:33:57;100165.53;;;11.93;73.49
59825;BME280;45703;50.898;6.054;2022-11-03T00:36:25;100164.97;;;11.91;73.68
59825;BME280;45703;50.898;6.054;2022-11-03T00:38:51;100164.97;;;11.91;73.67
59825;BME280;45703;50.898;6.054;2022-11-03T00:41:17;100165.78;;;11.92;73.71
59825;BME280;45703;50.898;6.054;2022-11-03T00:43:44;100164.97;;;11.91;73.67
59825;BME280;45703;50.898;6.054;2022-11-03T00:46:09;100162.06;;;11.93;73.49
59825;BME280;45703;50.898;6.054;2022-11-03T00:48:36;100141.13;;;11.90;73.59
59825;BME280;45703;50.898;6.054;2022-11-03T00:56:13;100139.94;;;11.97;73.35
59825;BME280;45703;50.898;6.054;2022-11-03T00:58:40;100139.53;;;12.00;73.41
59825;BME280;45703;50.898;6.054;2022-11-03T01:03:34;100116.34;;;11.94;73.28
59825;BME280;45703;50.898;6.054;2022-11-03T01:06:01;100135.66;;;11.96;73.51
59825;BME280;45703;50.898;6.054;2022-11-03T01:08:45;100122.75;;;11.93;73.57
59825;BME280;45703;50.898;6.054;2022-11-03T01:11:14;100120.06;;;11.93;73.39
59825;BME280;45703;50.898;6.054;2022-11-03T01:13:58;100111.00;;;11.94;73.43
59825;BME280;45703;50.898;6.054;2022-11-03T01:16:24;100114.50;;;11.95;73.56
59825;BME280;45703;50.898;6.054;2022-11-03T01:18:50;100112.63;;;11.95;73.62
59825;BME280;45703;50.898;6.054;2022-11-03T01:21:16;100112.63;;;11.95;73.79
59825;BME280;45703;50.898;6.054;2022-11-03T01:23:41;100107.16;;;11.90;73.86
59825;BME280;45703;50.898;6.054;2022-11-03T01:26:08;100099.59;;;11.87;73.81
59825;BME280;45703;50.898;6.054;2022-11-03T01:28:34;100101.69;;;11.97;73.69
59825;BME280;45703;50.898;6.054;2022-11-03T01:31:04;100082.59;;;11.93;73.61
59825;BME280;45703;50.898;6.054;2022-11-03T01:33:29;100095.31;;;11.98;73.51
59825;BME280;45703;50.898;6.054;2022-11-03T01:35:55;100095.19;;;12.04;73.65
59825;BME280;45703;50.898;6.054;2022-11-03T01:38:20;100085.19;;;12.00;73.49
59825;BME280;45703;50.898;6.054;2022-11-03T01:40:45;100082.28;;;12.01;73.62
59825;BME280;45703;50.898;6.054;2022-11-03T01:43:19;100085.75;;;12.02;73.38
59825;BME280;45703;50.898;6.054;2022-11-03T01:45:46;100082.13;;;12.08;73.63
59825;BME280;45703;50.898;6.054;2022-11-03T01:48:14;100063.41;;;12.08;73.53
59825;BME280;45703;50.898;6.054;2022-11-03T01:50:42;100065.41;;;12.12;73.28
59825;BME280;45703;50.898;6.054;2022-11-03T01:53:10;100058.06;;;12.08;73.14
59825;BME280;45703;50.898;6.054;2022-11-03T01:55:37;100056.78;;;12.10;73.14
59825;BME280;45703;50.898;6.054;2022-11-03T01:58:23;100060.50;;;12.09;73.22
59825;BME280;45703;50.898;6.054;2022-11-03T02:00:53;100048.19;;;12.08;73.06
59825;BME280;45703;50.898;6.054;2022-11-03T02:03:21;100040.72;;;12.10;73.02
59825;BME280;45703;50.898;6.054;2022-11-03T02:05:48;100041.22;;;12.07;73.26
59825;BME280;45703;50.898;6.054;2022-11-03T02:08:18;100042.59;;;12.10;73.20
59825;BME280;45703;50.898;6.054;2022-11-03T02:10:46;100033.75;;;12.09;73.30
59825;BME280;45703;50.898;6.054;2022-11-03T02:13:21;100039.69;;;12.11;73.24
59825;BME280;45703;50.898;6.054;2022-11-03T02:15:49;100038.06;;;12.10;73.12
59825;BME280;45703;50.898;6.054;2022-11-03T02:18:18;100028.16;;;12.11;73.02
59825;BME280;45703;50.898;6.054;2022-11-03T02:20:48;100013.72;;;12.12;73.06
59825;BME280;45703;50.898;6.054;2022-11-03T02:25:46;100018.59;;;12.15;73.14
59825;BME280;45703;50.898;6.054;2022-11-03T02:28:17;100019.53;;;12.20;73.10
59825;BME280;45703;50.898;6.054;2022-11-03T02:33:45;100011.50;;;12.20;73.20
59825;BME280;45703;50.898;6.054;2022-11-03T02:36:18;100000.22;;;12.18;73.01
59825;BME280;45703;50.898;6.054;2022-11-03T02:38:51;99992.50;;;12.22;73.66
59825;BME280;45703;50.898;6.054;2022-11-03T02:41:19;99989.63;;;12.23;73.10
59825;BME280;45703;50.898;6.054;2022-11-03T02:43:46;99982.38;;;12.24;73.32
59825;BME280;45703;50.898;6.054;2022-11-03T02:46:14;99979.47;;;12.25;73.23
59825;BME280;45703;50.898;6.054;2022-11-03T02:48:40;99977.16;;;12.29;73.13
59825;BME280;45703;50.898;6.054;2022-11-03T02:51:06;99978.03;;;12.34;73.49
59825;BME280;45703;50.898;6.054;2022-11-03T02:53:37;99983.41;;;12.34;73.72
59825;BME280;45703;50.898;6.054;2022-11-03T02:56:18;99966.84;;;12.37;73.53
59825;BME280;45703;50.898;6.054;2022-11-03T02:59:05;99962.34;;;12.38;73.23
59825;BME280;45703;50.898;6.054;2022-11-03T03:01:32;99961.59;;;12.42;73.59
59825;BME280;45703;50.898;6.054;2022-11-03T03:04:01;99951.84;;;12.36;73.74
59825;BME280;45703;50.898;6.054;2022-11-03T03:09:06;99951.16;;;12.41;73.85
59825;BME280;45703;50.898;6.054;2022-11-03T03:11:33;99953.47;;;12.37;73.71
59825;BME280;45703;50.898;6.054;2022-11-03T03:14:05;99948.47;;;12.41;73.92
59825;BME280;45703;50.898;6.054;2022-11-03T03:16:35;99938.47;;;12.36;74.02
59825;BME280;45703;50.898;6.054;2022-11-03T03:19:03;99946.38;;;12.43;73.75
59825;BME280;45703;50.898;6.054;2022-11-03T03:21:37;99945.78;;;12.41;74.26
59825;BME280;45703;50.898;6.054;2022-11-03T03:24:09;99945.78;;;12.41;74.12
59825;BME280;45703;50.898;6.054;2022-11-03T03:26:43;99938.25;;;12.38;74.38
59825;BME280;45703;50.898;6.054;2022-11-03T03:29:21;99933.13;;;12.36;74.25
59825;BME280;45703;50.898;6.054;2022-11-03T03:31:53;99934.75;;;12.37;74.66
59825;BME280;45703;50.898;6.054;2022-11-03T03:34:20;99925.34;;;12.35;74.73
59825;BME280;45703;50.898;6.054;2022-11-03T03:36:48;99923.56;;;12.40;74.63
59825;BME280;45703;50.898;6.054;2022-11-03T03:39:17;99928.34;;;12.38;74.47
59825;BME280;45703;50.898;6.054;2022-11-03T03:41:46;99919.16;;;12.34;74.56
59825;BME280;45703;50.898;6.054;2022-11-03T03:44:13;99921.69;;;12.41;74.50
59825;BME280;45703;50.898;6.054;2022-11-03T03:46:47;99919.81;;;12.41;75.41
59825;BME280;45703;50.898;6.054;2022-11-03T03:49:13;99921.13;;;12.39;75.03
59825;BME280;45703;50.898;6.054;2022-11-03T03:51:39;99919.50;;;12.38;74.91
59825;BME280;45703;50.898;6.054;2022-11-03T03:54:05;99916.09;;;12.42;75.31
59825;BME280;45703;50.898;6.054;2022-11-03T03:58:58;99890.09;;;12.26;75.17
59825;BME280;45703;50.898;6.054;2022-11-03T04:01:24;99901.34;;;12.40;75.63
59825;BME280;45703;50.898;6.054;2022-11-03T04:03:49;99911.47;;;12.38;75.28
59825;BME280;45703;50.898;6.054;2022-11-03T04:06:14;99900.59;;;12.44;75.62
59825;BME280;45703;50.898;6.054;2022-11-03T04:08:40;99898.75;;;12.45;75.57
59825;BME280;45703;50.898;6.054;2022-11-03T04:11:05;99884.44;;;12.39;75.59
59825;BME280;45703;50.898;6.054;2022-11-03T04:13:49;99884.78;;;12.43;76.05
59825;BME280;45703;50.898;6.054;2022-11-03T04:16:33;99886.16;;;12.45;75.76
59825;BME280;45703;50.898;6.054;2022-11-03T04:19:17;99877.63;;;12.48;76.25
59825;BME280;45703;50.898;6.054;2022-11-03T04:22:01;99885.22;;;12.51;75.77
59825;BME280;45703;50.898;6.054;2022-11-03T04:24:49;99866.34;;;12.46;75.94
59825;BME280;45703;50.898;6.054;2022-11-03T04:27:32;99856.22;;;12.48;75.83
59825;BME280;45703;50.898;6.054;2022-11-03T04:30:06;99868.25;;;12.46;75.82
59825;BME280;45703;50.898;6.054;2022-11-03T04:32:34;99871.50;;;12.48;76.03
59825;BME280;45703;50.898;6.054;2022-11-03T04:35:00;99879.53;;;12.48;76.05
59825;BME280;45703;50.898;6.054;2022-11-03T04:37:26;99868.47;;;12.44;76.15
59825;BME280;45703;50.898;6.054;2022-11-03T04:39:58;99859.94;;;12.47;76.00
59825;BME280;45703;50.898;6.054;2022-11-03T04:42:25;99863.38;;;12.43;76.41
59825;BME280;45703;50.898;6.054;2022-11-03T04:44:50;99857.19;;;12.42;76.26
59825;BME280;45703;50.898;6.054;2022-11-03T04:47:17;99858.81;;;12.43;76.54
59825;BME280;45703;50.898;6.054;2022-11-03T04:49:43;99848.09;;;12.43;76.26
59825;BME280;45703;50.898;6.054;2022-11-03T04:52:14;99845.13;;;12.40;76.45
59825;BME280;45703;50.898;6.054;2022-11-03T04:54:41;99843.56;;;12.44;76.62
59825;BME280;45703;50.898;6.054;2022-11-03T04:57:11;99838.22;;;12.44;76.80
59825;BME280;45703;50.898;6.054;2022-11-03T04:59:39;99838.31;;;12.49;76.57
59825;BME280;45703;50.898;6.054;2022-11-03T05:02:10;99830.28;;;12.49;76.30
59825;BME280;45703;50.898;6.054;2022-11-03T05:04:36;99827.03;;;12.47;76.72
59825;BME280;45703;50.898;6.054;2022-11-03T05:07:12;99821.91;;;12.45;76.73
59825;BME280;45703;50.898;6.054;2022-11-03T05:09:42;99799.91;;;12.43;76.64
59825;BME280;45703;50.898;6.054;2022-11-03T05:12:08;99796.03;;;12.34;76.66
59825;BME280;45703;50.898;6.054;2022-11-03T05:14:35;99811.75;;;12.47;76.69
59825;BME280;45703;50.898;6.054;2022-11-03T05:17:01;99805.59;;;12.47;76.71
59825;BME280;45703;50.898;6.054;2022-11-03T05:19:36;99788.06;;;12.39;76.61
59825;BME280;45703;50.898;6.054;2022-11-03T05:22:03;99789.47;;;12.42;76.67
59825;BME280;45703;50.898;6.054;2022-11-03T05:24:30;99791.88;;;12.43;76.73
59825;BME280;45703;50.898;6.054;2022-11-03T05:26:57;99776.38;;;12.45;76.66
59825;BME280;45703;50.898;6.054;2022-11-03T05:29:25;99774.78;;;12.44;76.56
59825;BME280;45703;50.898;6.054;2022-11-03T05:31:54;99780.94;;;12.45;76.75
59825;BME280;45703;50.898;6.054;2022-11-03T05:34:35;99776.31;;;12.40;77.10
59825;BME280;45703;50.898;6.054;2022-11-03T05:39:34;99759.75;;;12.43;76.63
59825;BME280;45703;50.898;6.054;2022-11-03T05:42:01;99761.06;;;12.41;76.73
59825;BME280;45703;50.898;6.054;2022-11-03T05:44:35;99766.16;;;12.42;76.70
59825;BME280;45703;50.898;6.054;2022-11-03T05:47:13;99757.56;;;12.40;76.77
59825;BME280;45703;50.898;6.054;2022-11-03T05:49:42;99767.78;;;12.43;76.56
59825;BME280;45703;50.898;6.054;2022-11-03T05:52:19;99757.56;;;12.40;76.71
59825;BME280;45703;50.898;6.054;2022-11-03T05:54:46;99760.25;;;12.40;76.65
59825;BME280;45703;50.898;6.054;2022-11-03T05:57:15;99755.47;;;12.42;76.54
59825;BME280;45703;50.898;6.054;2022-11-03T05:59:43;99753.84;;;12.41;76.57
59825;BME280;45703;50.898;6.054;2022-11-03T06:04:47;99750.44;;;12.46;77.55
59825;BME280;45703;50.898;6.054;2022-11-03T06:07:24;99755.47;;;12.42;76.75
59825;BME280;45703;50.898;6.054;2022-11-03T06:09:53;99730.25;;;12.38;76.51
59825;BME280;45703;50.898;6.054;2022-11-03T06:12:21;99733.25;;;12.42;76.54
59825;BME280;45703;50.898;6.054;2022-11-03T06:14:47;99724.66;;;12.40;76.41
59825;BME280;45703;50.898;6.054;2022-11-03T06:17:22;99718.25;;;12.41;76.52
59825;BME280;45703;50.898;6.054;2022-11-03T06:19:51;99707.19;;;12.37;76.73
59825;BME280;45703;50.898;6.054;2022-11-03T06:22:23;99707.78;;;12.39;76.58
59825;BME280;45703;50.898;6.054;2022-11-03T06:24:51;99695.44;;;12.38;76.65
59825;BME280;45703;50.898;6.054;2022-11-03T06:27:23;99698.38;;;12.37;76.69
59825;BME280;45703;50.898;6.054;2022-11-03T06:29:56;99696.56;;;12.42;76.50
59825;BME280;45703;50.898;6.054;2022-11-03T06:32:22;99707.03;;;12.44;76.48
59825;BME280;45703;50.898;6.054;2022-11-03T06:34:51;99692.84;;;12.43;76.34
59825;BME280;45703;50.898;6.054;2022-11-03T06:39:44;99700.94;;;12.48;76.43
59825;BME280;45703;50.898;6.054;2022-11-03T06:42:12;99700.47;;;12.51;76.05
59825;BME280;45703;50.898;6.054;2022-11-03T06:44:40;99693.78;;;12.54;76.26
59825;BME280;45703;50.898;6.054;2022-11-03T06:47:19;99690.31;;;12.53;76.16
59825;BME280;45703;50.898;6.054;2022-11-03T06:49:46;99672.38;;;12.54;76.00
59825;BME280;45703;50.898;6.054;2022-11-03T06:55:11;99672.72;;;12.57;76.04
59825;BME280;45703;50.898;6.054;2022-11-03T06:57:42;99673.34;;;12.64;75.90
59825;BME280;45703;50.898;6.054;2022-11-03T07:00:20;99671.22;;;12.66;75.71
59825;BME280;45703;50.898;6.054;2022-11-03T07:05:28;99672.34;;;12.70;75.78
59825;BME280;45703;50.898;6.054;2022-11-03T07:07:56;99668.03;;;12.69;75.84
59825;BME280;45703;50.898;6.054;2022-11-03T07:10:27;99663.41;;;12.65;75.98
59825;BME280;45703;50.898;6.054;2022-11-03T07:12:54;99657.81;;;12.66;75.76
59825;BME280;45703;50.898;6.054;2022-11-03T07:15:40;99660.00;;;12.69;75.88
59825;BME280;45703;50.898;6.054;2022-11-03T07:18:20;99661.06;;;12.68;76.75
59825;BME280;45703;50.898;6.054;2022-11-03T07:20:46;99656.75;;;12.67;75.86
59825;BME280;45703;50.898;6.054;2022-11-03T07:23:16;99652.53;;;12.71;75.93
59825;BME280;45703;50.898;6.054;2022-11-03T07:25:47;99647.66;;;12.68;75.90
59825;BME280;45703;50.898;6.054;2022-11-03T07:28:14;99650.91;;;12.70;75.82
59825;BME280;45703;50.898;6.054;2022-11-03T07:30:39;99642.13;;;12.75;75.79
59825;BME280;45703;50.898;6.054;2022-11-03T07:33:19;99649.69;;;12.78;75.99
59825;BME280;45703;50.898;6.054;2022-11-03T07:35:46;99642.75;;;12.82;75.68
59825;BME280;45703;50.898;6.054;2022-11-03T07:38:20;99643.31;;;12.84;75.59
59825;BME280;45703;50.898;6.054;2022-11-03T07:40:46;99653.78;;;12.85;75.62
59825;BME280;45703;50.898;6.054;2022-11-03T07:43:24;99650.53;;;12.83;75.95
59825;BME280;45703;50.898;6.054;2022-11-03T07:45:53;99642.00;;;12.86;75.27
59825;BME280;45703;50.898;6.054;2022-11-03T07:48:32;99639.97;;;12.93;75.29
59825;BME280;45703;50.898;6.054;2022-11-03T07:51:00;99640.22;;;12.92;75.28
59825;BME280;45703;50.898;6.054;2022-11-03T07:53:39;99628.19;;;12.94;75.10
59825;BME280;45703;50.898;6.054;2022-11-03T07:56:22;99623.09;;;12.93;75.19
59825;BME280;45703;50.898;6.054;2022-11-03T07:58:51;99624.44;;;12.95;75.17
59825;BME280;45703;50.898;6.054;2022-11-03T08:01:42;99628.25;;;12.99;74.97
59825;BME280;45703;50.898;6.054;2022-11-03T08:04:12;99622.31;;;12.97;74.80
59825;BME280;45703;50.898;6.054;2022-11-03T08:06:41;99621.53;;;12.97;74.85
59825;BME280;45703;50.898;6.054;2022-11-03T08:09:06;99632.06;;;13.03;74.80
59825;BME280;45703;50.898;6.054;2022-11-03T08:11:31;99621.22;;;12.93;73.99
59825;BME280;45703;50.898;6.054;2022-11-03T08:13:57;99621.34;;;13.03;74.65
59825;BME280;45703;50.898;6.054;2022-11-03T08:16:22;99631.59;;;13.11;74.35
59825;BME280;45703;50.898;6.054;2022-11-03T08:18:47;99617.94;;;13.12;74.12
59825;BME280;45703;50.898;6.054;2022-11-03T08:21:13;99614.50;;;13.17;74.11
59825;BME280;45703;50.898;6.054;2022-11-03T08:23:39;99609.16;;;13.17;73.91
59825;BME280;45703;50.898;6.054;2022-11-03T08:26:05;99613.19;;;13.19;74.10
59825;BME280;45703;50.898;6.054;2022-11-03T08:28:31;99610.28;;;13.21;74.01
59825;BME280;45703;50.898;6.054;2022-11-03T08:30:57;99604.41;;;13.24;74.05
59825;BME280;45703;50.898;6.054;2022-11-03T08:33:26;99596.59;;;13.22;73.93
59825;BME280;45703;50.898;6.054;2022-11-03T08:35:53;99585.94;;;13.27;73.89
59825;BME280;45703;50.898;6.054;2022-11-03T08:38:18;99579.56;;;13.33;73.66
59825;BME280;45703;50.898;6.054;2022-11-03T08:40:43;99575.03;;;13.39;73.73
59825;BME280;45703;50.898;6.054;2022-11-03T08:43:09;99577.22;;;13.42;73.86
59825;BME280;45703;50.898;6.054;2022-11-03T08:45:34;99542.13;;;13.43;73.64
59825;BME280;45703;50.898;6.054;2022-11-03T08:48:00;99553.75;;;13.54;73.15
59825;BME280;45703;50.898;6.054;2022-11-03T08:50:25;99552.16;;;13.58;73.62
59825;BME280;45703;50.898;6.054;2022-11-03T08:52:50;99538.47;;;13.59;73.13
59825;BME280;45703;50.898;6.054;2022-11-03T08:55:16;99538.25;;;13.66;72.96
59825;BME280;45703;50.898;6.054;2022-11-03T08:57:41;99528.63;;;13.70;72.82
59825;BME280;45703;50.898;6.054;2022-11-03T09:00:07;99511.72;;;13.69;73.07
59825;BME280;45703;50.898;6.054;2022-11-03T09:02:32;99524.91;;;13.76;72.95
59825;BME280;45703;50.898;6.054;2022-11-03T09:04:58;99520.09;;;13.78;72.96
59825;BME280;45703;50.898;6.054;2022-11-03T09:07:24;99517.16;;;13.79;72.86
59825;BME280;45703;50.898;6.054;2022-11-03T09:09:49;99506.97;;;13.81;72.87
59825;BME280;45703;50.898;6.054;2022-11-03T09:12:14;99491.13;;;13.80;72.88
59825;BME280;45703;50.898;6.054;2022-11-03T09:14:40;99480.44;;;13.85;72.63
59825;BME280;45703;50.898;6.054;2022-11-03T09:17:05;99484.19;;;13.89;72.76
59825;BME280;45703;50.898;6.054;2022-11-03T09:19:31;99477.78;;;13.90;72.54
59825;BME280;45703;50.898;6.054;2022-11-03T09:21:56;99478.06;;;13.93;72.67
59825;BME280;45703;50.898;6.054;2022-11-03T09:24:24;99469.19;;;13.93;72.86
59825;BME280;45703;50.898;6.054;2022-11-03T09:26:49;99465.44;;;13.94;72.97
59825;BME280;45703;50.898;6.054;2022-11-03T09:29:14;99456.88;;;13.97;72.89
59825;BME280;45703;50.898;6.054;2022-11-03T09:31:40;99465.75;;;14.02;72.82
59825;BME280;45703;50.898;6.054;2022-11-03T09:34:05;99452.63;;;14.06;72.76
59825;BME280;45703;50.898;6.054;2022-11-03T09:36:30;99445.41;;;14.11;72.52
59825;BME280;45703;50.898;6.054;2022-11-03T09:38:56;99438.97;;;14.12;72.63
59825;BME280;45703;50.898;6.054;2022-11-03T09:41:21;99424.25;;;14.15;72.62
59825;BME280;45703;50.898;6.054;2022-11-03T09:43:47;99414.06;;;14.17;72.33
59825;BME280;45703;50.898;6.054;2022-11-03T09:46:13;99396.88;;;14.18;72.63
59825;BME280;45703;50.898;6.054;2022-11-03T09:48:40;99393.91;;;14.24;72.14
59825;BME280;45703;50.898;6.054;2022-11-03T09:51:08;99386.16;;;14.28;72.09
59825;BME280;45703;50.898;6.054;2022-11-03T09:53:34;99385.63;;;14.26;72.06
59825;BME280;45703;50.898;6.054;2022-11-03T09:56:00;99388.59;;;14.29;72.30
59825;BME280;45703;50.898;6.054;2022-11-03T09:58:26;99380.25;;;14.31;72.22
59825;BME280;45703;50.898;6.054;2022-11-03T10:00:51;99388.06;;;14.32;72.13
59825;BME280;45703;50.898;6.054;2022-11-03T10:03:17;99385.09;;;14.34;72.11
59825;BME280;45703;50.898;6.054;2022-11-03T10:05:45;99378.41;;;14.36;71.78
59825;BME280;45703;50.898;6.054;2022-11-03T10:08:24;99370.59;;;14.35;72.14
59825;BME280;45703;50.898;6.054;2022-11-03T10:10:51;99367.66;;;14.36;72.27
59825;BME280;45703;50.898;6.054;2022-11-03T10:13:41;99363.63;;;14.39;71.68
59825;BME280;45703;50.898;6.054;2022-11-03T10:16:09;99348.31;;;14.34;71.90
59825;BME280;45703;50.898;6.054;2022-11-03T10:18:36;99345.66;;;14.39;72.09
59825;BME280;45703;50.898;6.054;2022-11-03T10:21:14;99344.56;;;14.40;72.09
59825;BME280;45703;50.898;6.054;2022-11-03T10:23:42;99333.81;;;14.40;72.80
59825;BME280;45703;50.898;6.054;2022-11-03T10:26:18;99322.81;;;14.42;72.02
59825;BME280;45703;50.898;6.054;2022-11-03T10:31:40;99321.72;;;14.43;71.81
59825;BME280;45703;50.898;6.054;2022-11-03T10:34:35;99326.84;;;14.39;71.64
59825;BME280;45703;50.898;6.054;2022-11-03T10:39:43;99323.88;;;14.41;71.71
59825;BME280;45703;50.898;6.054;2022-11-03T10:42:21;99324.41;;;14.43;71.60
59825;BME280;45703;50.898;6.054;2022-11-03T10:44:50;99330.06;;;14.46;71.66
59825;BME280;45703;50.898;6.054;2022-11-03T10:49:47;99322.25;;;14.49;71.83
59825;BME280;45703;50.898;6.054;2022-11-03T10:52:23;99302.94;;;14.52;71.55
59825;BME280;45703;50.898;6.054;2022-11-03T10:54:51;99305.88;;;14.56;71.61
59825;BME280;45703;50.898;6.054;2022-11-03T10:57:18;99287.91;;;14.61;71.67
59825;BME280;45703;50.898;6.054;2022-11-03T10:59:45;99282.53;;;14.66;71.55
59825;BME280;45703;50.898;6.054;2022-11-03T11:02:18;99269.63;;;14.63;71.37
59825;BME280;45703;50.898;6.054;2022-11-03T11:04:46;99268.56;;;14.69;71.46
59825;BME280;45703;50.898;6.054;2022-11-03T11:07:22;99257.00;;;14.69;71.30
59825;BME280;45703;50.898;6.054;2022-11-03T11:09:50;99264.25;;;14.68;71.32
59825;BME280;45703;50.898;6.054;2022-11-03T11:12:17;99256.72;;;14.70;71.18
59825;BME280;45703;50.898;6.054;2022-11-03T11:14:57;99251.09;;;14.67;70.95
59825;BME280;45703;50.898;6.054;2022-11-03T11:22:48;99244.09;;;14.66;71.01
59825;BME280;45703;50.898;6.054;2022-11-03T11:25:16;99240.06;;;14.73;71.19
59825;BME280;45703;50.898;6.054;2022-11-03T11:36:00;99206.19;;;14.82;70.55
59825;BME280;45703;50.898;6.054;2022-11-03T11:38:58;99200.25;;;14.85;70.96
59825;BME280;45703;50.898;6.054;2022-11-03T11:47:36;99184.59;;;15.02;70.64
59825;BME280;45703;50.898;6.054;2022-11-03T11:52:42;99159.31;;;15.13;70.02
59825;BME280;45703;50.898;6.054;2022-11-03T11:58:05;99155.47;;;15.24;69.81
59825;BME280;45703;50.898;6.054;2022-11-03T12:00:36;99133.69;;;15.26;69.63
59825;BME280;45703;50.898;6.054;2022-11-03T12:03:04;99130.72;;;15.27;69.21
59825;BME280;45703;50.898;6.054;2022-11-03T12:05:32;99127.50;;;15.30;69.35
59825;BME280;45703;50.898;6.054;2022-11-03T12:07:58;99121.56;;;15.33;69.29
59825;BME280;45703;50.898;6.054;2022-11-03T12:10:26;99112.44;;;15.34;69.39
59825;BME280;45703;50.898;6.054;2022-11-03T12:12:53;99117.81;;;15.34;69.11
59825;BME280;45703;50.898;6.054;2022-11-03T12:18:40;99098.47;;;15.32;69.27
59825;BME280;45703;50.898;6.054;2022-11-03T12:21:11;99091.72;;;15.30;69.05
59825;BME280;45703;50.898;6.054;2022-11-03T12:23:43;99085.84;;;15.28;68.42
59825;BME280;45703;50.898;6.054;2022-11-03T12:26:16;99084.75;;;15.29;68.69
59825;BME280;45703;50.898;6.054;2022-11-03T12:28:42;99082.59;;;15.26;68.98
59825;BME280;45703;50.898;6.054;2022-11-03T12:31:07;99069.19;;;15.21;68.13
59825;BME280;45703;50.898;6.054;2022-11-03T12:33:33;99067.03;;;15.23;69.12
59825;BME280;45703;50.898;6.054;2022-11-03T12:35:58;99051.72;;;15.23;69.06
59825;BME280;45703;50.898;6.054;2022-11-03T12:38:23;99040.94;;;15.23;67.95
59825;BME280;45703;50.898;6.054;2022-11-03T12:40:49;99034.75;;;15.23;68.21
59825;BME280;45703;50.898;6.054;2022-11-03T12:43:15;99030.72;;;15.25;69.08
59825;BME280;45703;50.898;6.054;2022-11-03T12:45:40;99024.00;;;15.28;69.04
59825;BME280;45703;50.898;6.054;2022-11-03T12:48:06;99024.81;;;15.28;69.37
59825;BME280;45703;50.898;6.054;2022-11-03T12:50:32;99007.59;;;15.29;69.08
59825;BME280;45703;50.898;6.054;2022-11-03T12:52:57;98992.25;;;15.30;69.11
59825;BME280;45703;50.898;6.054;2022-11-03T12:55:23;98973.72;;;15.28;69.41
59825;BME280;45703;50.898;6.054;2022-11-03T12:57:48;98981.22;;;15.31;68.68
59825;BME280;45703;50.898;6.054;2022-11-03T13:00:14;98973.69;;;15.33;69.13
59825;BME280;45703;50.898;6.054;2022-11-03T13:02:39;98968.03;;;15.35;69.40
59825;BME280;45703;50.898;6.054;2022-11-03T13:05:05;98960.47;;;15.37;68.35
59825;BME280;45703;50.898;6.054;2022-11-03T13:07:31;98959.09;;;15.39;69.45
59825;BME280;45703;50.898;6.054;2022-11-03T13:09:56;98964.44;;;15.44;69.24
59825;BME280;45703;50.898;6.054;2022-11-03T13:12:22;98952.38;;;15.42;68.25
59825;BME280;45703;50.898;6.054;2022-11-03T13:14:57;98949.91;;;15.45;68.93
59825;BME280;45703;50.898;6.054;2022-11-03T13:17:24;98943.16;;;15.48;69.03
59825;BME280;45703;50.898;6.054;2022-11-03T13:19:50;98939.09;;;15.50;68.85
59825;BME280;45703;50.898;6.054;2022-11-03T13:22:15;98931.59;;;15.47;69.05
59825;BME280;45703;50.898;6.054;2022-11-03T13:24:41;98931.06;;;15.45;68.98
59825;BME280;45703;50.898;6.054;2022-11-03T13:27:06;98920.88;;;15.42;69.14
59825;BME280;45703;50.898;6.054;2022-11-03T13:29:32;98919.28;;;15.41;68.92
59825;BME280;45703;50.898;6.054;2022-11-03T13:31:57;98906.41;;;15.38;68.88
59825;BME280;45703;50.898;6.054;2022-11-03T13:34:22;98895.69;;;15.33;69.38
59825;BME280;45703;50.898;6.054;2022-11-03T13:36:48;98895.19;;;15.31;69.38
59825;BME280;45703;50.898;6.054;2022-11-03T13:39:13;98882.84;;;15.25;69.20
59825;BME280;45703;50.898;6.054;2022-11-03T13:41:38;98889.31;;;15.24;69.50
59825;BME280;45703;50.898;6.054;2022-11-03T13:44:04;98887.69;;;15.23;69.63
59825;BME280;45703;50.898;6.054;2022-11-03T13:46:29;98875.41;;;15.17;69.62
59825;BME280;45703;50.898;6.054;2022-11-03T13:48:54;98871.09;;;15.16;69.82
59825;BME280;45703;50.898;6.054;2022-11-03T13:51:20;98882.44;;;15.13;69.67
59825;BME280;45703;50.898;6.054;2022-11-03T13:53:45;98869.81;;;15.09;69.64
59825;BME280;45703;50.898;6.054;2022-11-03T13:56:11;98862.06;;;15.02;69.53
59825;BME280;45703;50.898;6.054;2022-11-03T13:58:37;98875.00;;;15.00;69.67
59825;BME280;45703;50.898;6.054;2022-11-03T14:01:02;98876.59;;;15.01;69.81
59825;BME280;45703;50.898;6.054;2022-11-03T14:03:27;98875.56;;;14.97;70.25
59825;BME280;45703;50.898;6.054;2022-11-03T14:05:53;98876.38;;;14.98;70.35
59825;BME280;45703;50.898;6.054;2022-11-03T14:08:18;98873.44;;;14.94;70.71
59825;BME280;45703;50.898;6.054;2022-11-03T14:10:43;98885.28;;;14.93;70.31
59825;BME280;45703;50.898;6.054;2022-11-03T14:13:09;98887.44;;;14.91;70.38
59825;BME280;45703;50.898;6.054;2022-11-03T14:15:35;98871.31;;;14.91;70.80